Time;durP1;ratioP1;P1;durP2;ratioP2;P2;SDS_P1;SDS_P2;PMS_P1;PMS_P2;Temp;Humidity;BMP_temperature;BMP_pressure;BME280_temperature;BME280_humidity;BME280_pressure;Samples;Min_cycle;Max_cycle;Signal;HPM_P1;HPM_P2
2021/07/10 00:01:12;;;;;;;7.60;6.58;;;;;;;19.87;78.74;95909.67;1763673;81;21002;-59
2021/07/10 00:03:39;;;;;;;9.13;6.53;;;;;;;19.90;78.16;95911.33;1763734;81;21007;-59
2021/07/10 00:06:07;;;;;;;7.92;6.80;;;;;;;19.97;78.21;95918.59;1763619;81;21106;-59
2021/07/10 00:08:33;;;;;;;8.25;6.12;;;;;;;19.99;77.78;95916.71;1763880;81;21516;-58
2021/07/10 00:11:00;;;;;;;9.50;5.53;;;;;;;20.01;77.96;95923.72;1763948;81;21033;-59
2021/07/10 00:13:27;;;;;;;9.95;6.05;;;;;;;19.92;77.55;95919.30;1764156;81;21003;-59
2021/07/10 00:15:54;;;;;;;9.78;6.55;;;;;;;19.80;78.14;95920.30;1763917;81;21004;-59
2021/07/10 00:18:20;;;;;;;12.80;7.10;;;;;;;19.81;78.48;95926.06;1763824;81;21018;-59
2021/07/10 00:20:47;;;;;;;11.35;5.83;;;;;;;19.84;78.73;95919.20;1763768;81;21026;-59
2021/07/10 00:23:14;;;;;;;9.20;6.10;;;;;;;19.83;78.38;95913.47;1763637;81;21066;-59
2021/07/10 00:25:43;;;;;;;8.55;6.17;;;;;;;19.86;78.07;95921.34;1763574;81;21053;-59
2021/07/10 00:28:10;;;;;;;9.18;5.58;;;;;;;19.84;78.30;95926.38;1763714;81;21061;-59
2021/07/10 00:30:37;;;;;;;8.23;6.65;;;;;;;19.82;78.44;95922.42;1763588;81;21046;-59
2021/07/10 00:33:04;;;;;;;8.55;6.08;;;;;;;19.80;78.57;95916.75;1763435;81;21121;-59
2021/07/10 00:35:30;;;;;;;8.55;6.97;;;;;;;19.76;78.71;95906.68;1763974;81;21010;-59
2021/07/10 00:37:57;;;;;;;9.33;6.67;;;;;;;19.67;79.35;95907.13;1763509;81;21473;-59
2021/07/10 00:40:25;;;;;;;8.40;6.42;;;;;;;19.62;79.12;95901.10;1763609;81;21094;-59
2021/07/10 00:42:51;;;;;;;7.15;6.45;;;;;;;19.62;78.76;95907.80;1763860;81;21022;-59
2021/07/10 00:45:18;;;;;;;7.70;6.60;;;;;;;19.53;79.69;95901.09;1763576;81;21137;-59
2021/07/10 00:47:45;;;;;;;8.75;6.40;;;;;;;19.56;79.71;95896.92;1763711;81;21563;-59
2021/07/10 00:50:19;;;;;;;8.50;6.35;;;;;;;19.57;79.70;95891.95;1763901;81;21045;-59
2021/07/10 00:52:46;;;;;;;7.58;6.17;;;;;;;19.56;79.30;95893.39;1763895;81;21500;-59
2021/07/10 00:55:13;;;;;;;7.33;6.50;;;;;;;19.47;79.63;95890.67;1763905;81;20986;-59
2021/07/10 00:57:42;;;;;;;10.60;6.90;;;;;;;19.46;79.60;95887.61;1763797;81;21513;-59
2021/07/10 01:00:14;;;;;;;9.05;6.35;;;;;;;19.41;78.91;95886.97;1763690;81;21010;-59
2021/07/10 01:02:42;;;;;;;8.35;6.12;;;;;;;19.28;79.37;95889.83;1763786;81;21074;-59
2021/07/10 01:05:13;;;;;;;9.13;6.20;;;;;;;19.30;79.23;95883.94;1766554;81;21077;-59
2021/07/10 01:07:39;;;;;;;10.78;6.85;;;;;;;19.29;80.20;95884.41;1770561;81;21057;-58
2021/07/10 01:10:12;;;;;;;7.20;6.50;;;;;;;19.30;79.72;95879.92;1770660;81;21472;-59
2021/07/10 01:12:42;;;;;;;11.70;5.60;;;;;;;19.32;79.53;95884.73;1770765;81;21133;-59
2021/07/10 01:15:12;;;;;;;10.18;6.80;;;;;;;19.30;79.09;95887.47;1770683;81;20971;-59
2021/07/10 01:17:39;;;;;;;7.08;6.22;;;;;;;19.20;78.70;95881.73;1770495;81;21090;-59
2021/07/10 01:20:14;;;;;;;10.43;6.72;;;;;;;19.26;78.88;95885.91;1770421;81;21018;-59
2021/07/10 01:22:41;;;;;;;7.85;7.05;;;;;;;19.17;79.81;95883.19;1770650;81;21012;-59
2021/07/10 01:25:12;;;;;;;10.03;6.87;;;;;;;19.12;80.53;95884.35;1770668;81;21030;-59
2021/07/10 01:27:39;;;;;;;8.13;6.95;;;;;;;19.12;80.29;95885.21;1770446;81;21589;-59
2021/07/10 01:30:10;;;;;;;8.40;6.85;;;;;;;19.09;80.06;95887.18;1770689;81;21033;-59
2021/07/10 01:32:39;;;;;;;8.85;7.58;;;;;;;19.11;80.43;95887.50;1770249;81;21101;-59
2021/07/10 01:35:09;;;;;;;9.18;6.70;;;;;;;19.20;80.12;95890.20;1770909;81;21026;-59
2021/07/10 01:37:37;;;;;;;7.90;6.20;;;;;;;19.22;79.39;95881.16;1770597;81;21130;-59
2021/07/10 01:40:08;;;;;;;10.38;6.42;;;;;;;19.22;79.05;95871.79;1770634;81;21464;-58
2021/07/10 01:42:34;;;;;;;9.73;6.90;;;;;;;19.13;79.06;95875.41;1770663;81;21018;-59
2021/07/10 01:45:01;;;;;;;8.23;7.40;;;;;;;19.09;80.14;95880.02;1770747;81;20966;-59
2021/07/10 01:47:28;;;;;;;10.03;7.28;;;;;;;19.14;80.14;95886.48;1770605;81;21022;-59
2021/07/10 01:49:56;;;;;;;10.95;6.75;;;;;;;19.17;80.07;95892.55;1770554;81;20990;-59
2021/07/10 01:52:23;;;;;;;9.60;6.25;;;;;;;19.20;80.04;95896.88;1770403;81;21574;-59
2021/07/10 01:54:50;;;;;;;10.30;7.22;;;;;;;19.10;80.73;95882.21;1770501;81;21048;-59
2021/07/10 01:57:18;;;;;;;8.50;7.15;;;;;;;19.09;80.01;95880.49;1770681;81;21018;-59
2021/07/10 01:59:45;;;;;;;9.53;6.95;;;;;;;19.22;80.16;95883.83;1770690;81;21006;-59
2021/07/10 02:02:11;;;;;;;8.15;7.10;;;;;;;19.19;80.77;95869.75;1770667;81;21073;-59
2021/07/10 02:04:49;;;;;;;11.97;7.45;;;;;;;19.29;80.60;95882.22;1770338;81;21077;-59
2021/07/10 02:07:16;;;;;;;8.80;7.05;;;;;;;19.38;80.69;95879.11;1770689;81;21469;-59
2021/07/10 02:09:45;;;;;;;6.28;5.67;;;;;;;19.50;80.21;95870.45;1770368;81;21089;-59
2021/07/10 02:12:14;;;;;;;9.20;6.62;;;;;;;19.57;79.74;95869.20;1770602;81;21102;-59
2021/07/10 02:14:42;;;;;;;7.67;6.25;;;;;;;19.55;79.38;95871.08;1770639;81;21014;-59
2021/07/10 02:17:09;;;;;;;7.70;5.95;;;;;;;19.51;80.26;95867.33;1770523;81;21067;-59
2021/07/10 02:19:35;;;;;;;13.30;6.80;;;;;;;19.54;79.30;95864.48;1770556;81;21022;-59
2021/07/10 02:22:05;;;;;;;10.40;6.75;;;;;;;19.43;79.66;95859.67;1770582;81;21018;-59
2021/07/10 02:24:32;;;;;;;12.70;7.60;;;;;;;19.43;80.53;95865.89;1738419;81;21002;-59
2021/07/10 02:26:59;;;;;;;9.88;7.45;;;;;;;19.55;80.40;95866.20;1770274;81;21034;-59
2021/07/10 02:29:26;;;;;;;12.53;7.42;;;;;;;19.59;80.18;95862.45;1770700;81;21014;-58
2021/07/10 02:31:53;;;;;;;9.60;7.15;;;;;;;19.65;80.04;95866.14;1770248;81;21551;-59
2021/07/10 02:34:21;;;;;;;10.30;7.20;;;;;;;19.67;79.82;95867.83;1770238;81;21033;-59
2021/07/10 02:36:48;;;;;;;9.45;6.62;;;;;;;19.69;79.50;95862.41;1770573;81;21014;-59
2021/07/10 02:39:14;;;;;;;10.93;7.75;;;;;;;19.70;78.98;95865.95;1770530;81;21022;-59
2021/07/10 02:41:41;;;;;;;9.50;8.50;;;;;;;19.65;79.37;95863.02;1770561;81;20986;-59
2021/07/10 02:44:07;;;;;;;8.43;7.60;;;;;;;19.68;79.55;95859.36;1770381;81;21073;-59
2021/07/10 02:46:34;;;;;;;8.98;8.00;;;;;;;19.68;79.08;95862.03;1770854;81;21502;-59
2021/07/10 02:49:01;;;;;;;14.83;8.20;;;;;;;19.61;78.77;95868.13;1770607;81;21025;-59
2021/07/10 02:51:28;;;;;;;10.00;8.20;;;;;;;19.56;79.53;95866.14;1770578;81;21467;-59
2021/07/10 02:53:56;;;;;;;9.05;6.25;;;;;;;19.65;79.46;95867.04;1770896;81;21025;-59
2021/07/10 02:56:24;;;;;;;9.48;6.28;;;;;;;19.63;79.18;95866.69;1770685;81;21543;-59
2021/07/10 02:58:52;;;;;;;11.80;6.42;;;;;;;19.58;79.41;95868.28;1770593;81;20987;-59
2021/07/10 03:01:20;;;;;;;10.60;6.85;;;;;;;19.61;79.47;95864.58;1770842;81;21061;-59
2021/07/10 03:03:47;;;;;;;10.85;7.12;;;;;;;19.56;80.32;95859.94;1770446;81;21030;-59
2021/07/10 03:06:14;;;;;;;8.55;7.75;;;;;;;19.55;80.47;95856.84;1766245;81;21026;-59
2021/07/10 03:08:42;;;;;;;8.63;6.40;;;;;;;19.57;80.47;95858.50;1763955;81;21026;-59
2021/07/10 03:11:11;;;;;;;7.78;6.30;;;;;;;19.58;79.67;95857.58;1763687;81;21552;-59
2021/07/10 03:13:39;;;;;;;8.85;6.60;;;;;;;19.58;79.68;95855.34;1763779;81;21025;-59
2021/07/10 03:16:06;;;;;;;8.73;7.83;;;;;;;19.55;80.30;95855.02;1764335;81;21022;-59
2021/07/10 03:18:34;;;;;;;8.88;7.80;;;;;;;19.65;80.46;95856.77;1763564;81;21105;-59
2021/07/10 03:21:01;;;;;;;9.05;7.15;;;;;;;19.71;80.47;95860.53;1763933;81;21082;-59
2021/07/10 03:23:28;;;;;;;8.15;7.08;;;;;;;19.84;80.18;95860.30;1763894;81;21014;-59
2021/07/10 03:25:55;;;;;;;10.58;7.33;;;;;;;19.92;79.64;95859.05;1763332;81;21023;-59
2021/07/10 03:28:22;;;;;;;11.78;7.83;;;;;;;20.00;79.22;95857.69;1764009;81;21022;-58
2021/07/10 03:30:51;;;;;;;11.15;7.72;;;;;;;20.04;79.03;95857.08;1763985;81;21456;-59
2021/07/10 03:33:17;;;;;;;9.53;7.15;;;;;;;20.08;78.99;95857.30;1763655;81;21026;-59
2021/07/10 03:35:44;;;;;;;9.93;7.70;;;;;;;20.18;78.85;95863.05;1763827;81;21010;-59
2021/07/10 03:38:11;;;;;;;9.28;8.35;;;;;;;20.22;78.59;95865.97;1763824;81;21057;-59
2021/07/10 03:40:37;;;;;;;10.43;7.72;;;;;;;20.25;78.68;95863.98;1763764;81;21086;-59
2021/07/10 03:43:04;;;;;;;8.33;7.28;;;;;;;20.31;78.38;95862.33;1764122;81;21018;-59
2021/07/10 03:45:31;;;;;;;30.68;27.55;;;;;;;20.39;78.48;95855.23;1763858;81;21014;-59
2021/07/10 03:47:58;;;;;;;12.35;11.00;;;;;;;20.48;77.71;95855.20;1763360;81;21050;-59
2021/07/10 03:50:26;;;;;;;10.85;9.65;;;;;;;20.55;77.40;95851.75;1763746;81;20998;-59
2021/07/10 03:52:54;;;;;;;11.48;9.40;;;;;;;20.60;77.01;95847.87;1763871;81;21033;-59
2021/07/10 03:55:20;;;;;;;11.80;10.72;;;;;;;20.63;76.78;95842.34;1763647;81;21034;-59
2021/07/10 03:57:47;;;;;;;15.38;10.08;;;;;;;20.65;77.11;95846.28;1764193;81;21015;-59
2021/07/10 04:00:18;;;;;;;11.22;9.05;;;;;;;20.64;77.55;95842.75;1764007;81;21082;-59
2021/07/10 04:02:45;;;;;;;9.50;8.65;;;;;;;20.70;77.41;95850.44;1736054;81;20998;-59
2021/07/10 04:05:12;;;;;;;9.80;8.23;;;;;;;20.73;76.80;95844.91;1763631;81;21062;-59
2021/07/10 04:07:39;;;;;;;9.45;8.33;;;;;;;20.75;76.58;95844.83;1763774;81;21049;-59
2021/07/10 04:10:09;;;;;;;12.47;10.85;;;;;;;20.74;75.18;95849.81;1763733;81;21019;-59
2021/07/10 04:12:36;;;;;;;10.78;9.53;;;;;;;20.77;75.26;95859.52;1763998;81;20991;-59
2021/07/10 04:15:05;;;;;;;11.00;9.78;;;;;;;20.82;75.64;95860.98;1763636;81;21089;-59
2021/07/10 04:17:32;;;;;;;11.70;10.60;;;;;;;20.86;75.56;95867.89;1764009;81;21465;-59
2021/07/10 04:20:00;;;;;;;10.82;9.28;;;;;;;20.88;75.85;95867.34;1763702;81;20991;-59
2021/07/10 04:22:27;;;;;;;12.20;8.08;;;;;;;20.90;76.54;95869.95;1763797;81;20983;-59
2021/07/10 04:24:53;;;;;;;10.85;7.92;;;;;;;20.88;76.64;95865.13;1763973;81;21058;-59
2021/07/10 04:27:20;;;;;;;9.03;8.20;;;;;;;20.87;76.76;95862.94;1763961;81;20986;-59
2021/07/10 04:29:49;;;;;;;9.23;8.40;;;;;;;20.83;76.89;95859.16;1763599;81;21102;-59
2021/07/10 04:32:17;;;;;;;9.05;8.15;;;;;;;20.84;77.95;95862.22;1763885;81;21496;-59
2021/07/10 04:34:44;;;;;;;9.38;8.48;;;;;;;20.90;77.81;95868.13;1763848;81;21022;-59
2021/07/10 04:37:10;;;;;;;11.15;7.67;;;;;;;20.93;77.42;95870.63;1763512;81;21101;-59
2021/07/10 04:39:37;;;;;;;12.95;11.75;;;;;;;21.01;77.21;95869.34;1763596;81;21519;-59
2021/07/10 04:42:05;;;;;;;13.70;11.80;;;;;;;20.94;77.04;95865.67;1764096;81;21050;-59
2021/07/10 04:44:31;;;;;;;9.00;8.10;;;;;;;20.95;77.64;95858.48;1763567;81;21071;-59
2021/07/10 04:46:58;;;;;;;12.30;8.78;;;;;;;21.01;77.83;95857.27;1764127;81;20990;-59
2021/07/10 04:49:25;;;;;;;14.93;11.75;;;;;;;21.08;77.65;95853.30;1763515;81;21588;-59
2021/07/10 04:51:52;;;;;;;14.93;10.18;;;;;;;21.15;77.97;95856.03;1763680;81;21578;-59
2021/07/10 04:54:19;;;;;;;10.85;9.68;;;;;;;21.21;77.89;95854.33;1764189;81;20990;-59
2021/07/10 04:56:45;;;;;;;9.75;8.10;;;;;;;21.29;77.54;95857.92;1763987;81;21484;-59
2021/07/10 04:59:12;;;;;;;9.40;7.83;;;;;;;21.31;77.03;95851.52;1763840;81;21456;-59
2021/07/10 05:01:39;;;;;;;8.48;7.67;;;;;;;21.30;77.05;95861.02;1763904;81;21034;-59
2021/07/10 05:04:05;;;;;;;9.40;8.25;;;;;;;21.29;76.81;95858.81;1763797;81;20994;-59
2021/07/10 05:06:32;;;;;;;9.20;8.30;;;;;;;21.31;77.20;95863.59;1763873;81;21026;-59
2021/07/10 05:08:59;;;;;;;9.65;8.10;;;;;;;21.36;77.23;95857.48;1763587;81;21102;-59
2021/07/10 05:11:25;;;;;;;10.70;9.05;;;;;;;21.33;77.62;95859.49;1763987;81;21058;-59
2021/07/10 05:13:54;;;;;;;9.43;8.53;;;;;;;21.28;77.94;95862.44;1763714;81;21082;-59
2021/07/10 05:16:20;;;;;;;11.10;8.68;;;;;;;21.33;77.86;95867.55;1763966;81;21496;-59
2021/07/10 05:18:47;;;;;;;12.80;9.58;;;;;;;21.37;77.79;95857.03;1763744;81;21062;-59
2021/07/10 05:21:14;;;;;;;9.65;8.68;;;;;;;21.43;77.40;95861.21;1763551;81;21014;-59
2021/07/10 05:23:41;;;;;;;10.53;8.43;;;;;;;21.54;77.36;95858.77;1763964;81;21018;-59
2021/07/10 05:26:11;;;;;;;10.90;9.65;;;;;;;21.68;77.01;95855.30;1763497;81;21018;-59
2021/07/10 05:28:38;;;;;;;16.12;12.68;;;;;;;21.76;76.48;95859.73;1764438;81;21022;-59
2021/07/10 05:31:05;;;;;;;15.25;12.40;;;;;;;21.82;75.96;95864.73;1763869;81;20990;-59
2021/07/10 05:33:32;;;;;;;13.30;12.05;;;;;;;21.84;75.37;95858.80;1763560;81;21046;-59
2021/07/10 05:35:58;;;;;;;12.33;11.12;;;;;;;21.92;76.48;95861.02;1763448;81;21595;-59
2021/07/10 05:38:26;;;;;;;11.57;10.38;;;;;;;22.02;76.71;95861.75;1763897;81;21551;-58
2021/07/10 05:40:54;;;;;;;11.05;9.30;;;;;;;22.10;76.50;95866.67;1763492;81;21042;-59
2021/07/10 05:43:24;;;;;;;10.32;8.65;;;;;;;22.19;76.39;95866.58;1763877;81;21006;-59
2021/07/10 05:45:51;;;;;;;10.08;8.75;;;;;;;22.31;76.37;95870.39;1763701;81;21110;-59
2021/07/10 05:48:19;;;;;;;10.58;9.58;;;;;;;22.35;76.06;95864.74;1735672;81;21445;-59
2021/07/10 05:50:47;;;;;;;10.85;9.03;;;;;;;22.43;75.89;95869.16;1763694;81;21022;-58
2021/07/10 05:53:14;;;;;;;9.75;8.85;;;;;;;22.47;75.24;95870.69;1763883;81;21042;-59
2021/07/10 05:55:41;;;;;;;8.90;8.00;;;;;;;22.51;74.90;95875.41;1763864;81;21054;-59
2021/07/10 05:58:11;;;;;;;9.55;8.65;;;;;;;22.50;75.40;95880.39;1735881;81;20995;-59
2021/07/10 06:00:36;;;;;;;10.20;8.95;;;;;;;22.53;75.29;95877.98;1763494;81;21031;-59
2021/07/10 06:03:03;;;;;;;10.10;9.20;;;;;;;22.52;75.57;95878.48;1764125;81;21026;-59
2021/07/10 06:05:30;;;;;;;11.38;8.73;;;;;;;22.56;75.16;95875.14;1763557;81;21113;-59
2021/07/10 06:07:56;;;;;;;10.40;8.33;;;;;;;22.57;74.48;95877.71;1763236;81;20986;-59
2021/07/10 06:10:24;;;;;;;12.25;8.70;;;;;;;22.61;74.51;95881.95;1763646;81;21102;-59
2021/07/10 06:12:51;;;;;;;11.35;8.80;;;;;;;22.63;74.82;95881.39;1763785;81;21030;-59
2021/07/10 06:15:18;;;;;;;10.80;8.85;;;;;;;22.75;74.58;95878.88;1763705;81;21078;-59
2021/07/10 06:17:45;;;;;;;9.35;8.45;;;;;;;22.88;74.40;95881.17;1763915;81;21038;-59
2021/07/10 06:20:15;;;;;;;9.88;8.85;;;;;;;23.09;74.57;95879.02;1764162;81;21026;-59
2021/07/10 06:22:46;;;;;;;9.65;8.65;;;;;;;23.27;74.15;95881.86;1764201;81;21014;-59
2021/07/10 06:25:14;;;;;;;10.18;9.28;;;;;;;23.39;72.82;95886.95;1764314;81;21034;-59
2021/07/10 06:27:42;;;;;;;10.08;8.50;;;;;;;23.52;73.84;95874.40;1764114;81;20962;-59
2021/07/10 06:30:12;;;;;;;9.60;8.43;;;;;;;23.68;73.30;95870.70;1763865;81;21018;-59
2021/07/10 06:32:39;;;;;;;11.00;9.30;;;;;;;23.83;73.43;95872.39;1764145;81;21002;-59
2021/07/10 06:35:08;;;;;;;10.40;9.28;;;;;;;23.91;72.45;95871.88;1764037;81;21504;-59
2021/07/10 06:37:34;;;;;;;10.43;9.43;;;;;;;23.98;72.08;95876.75;1764330;81;21006;-59
2021/07/10 06:40:03;;;;;;;12.33;9.43;;;;;;;24.13;71.80;95870.81;1763965;81;21069;-59
2021/07/10 06:42:29;;;;;;;10.58;9.65;;;;;;;24.26;71.41;95868.63;1764080;81;21440;-59
2021/07/10 06:44:56;;;;;;;10.98;9.88;;;;;;;24.32;71.56;95873.12;1764091;81;21012;-59
2021/07/10 06:47:23;;;;;;;11.43;10.15;;;;;;;24.46;71.39;95874.89;1763810;81;21517;-59
2021/07/10 06:49:49;;;;;;;11.08;9.95;;;;;;;24.51;70.19;95870.53;1763867;81;21011;-59
2021/07/10 06:52:16;;;;;;;11.12;9.88;;;;;;;24.57;70.03;95869.63;1764209;81;21457;-59
2021/07/10 06:54:42;;;;;;;18.77;16.97;;;;;;;24.79;69.72;95864.05;1763791;81;21062;-59
2021/07/10 06:57:09;;;;;;;10.80;9.78;;;;;;;24.94;68.14;95864.80;1763754;81;21125;-59
2021/07/10 06:59:35;;;;;;;11.78;9.65;;;;;;;25.01;68.52;95868.80;1763796;81;21022;-59
2021/07/10 07:02:02;;;;;;;9.68;8.78;;;;;;;25.08;67.23;95861.13;1763816;81;21022;-59
2021/07/10 07:04:29;;;;;;;11.30;10.30;;;;;;;25.24;67.71;95857.72;1763687;81;21042;-59
2021/07/10 07:06:55;;;;;;;9.48;8.58;;;;;;;25.50;67.42;95856.28;1766378;81;21118;-59
2021/07/10 07:09:21;;;;;;;9.83;8.98;;;;;;;25.61;64.56;95854.53;1770683;81;21025;-59
2021/07/10 07:11:50;;;;;;;13.25;9.43;;;;;;;25.65;62.85;95846.58;1770531;81;21002;-59
2021/07/10 07:14:17;;;;;;;12.60;9.23;;;;;;;25.77;62.00;95850.67;1770787;81;21070;-59
2021/07/10 07:16:43;;;;;;;11.05;8.68;;;;;;;25.92;62.74;95853.61;1770985;81;21540;-59
2021/07/10 07:19:10;;;;;;;9.95;8.83;;;;;;;25.89;61.50;95852.49;1770860;81;21113;-59
2021/07/10 07:21:36;;;;;;;10.58;9.58;;;;;;;25.81;62.21;95853.04;1770671;81;21065;-59
2021/07/10 07:24:04;;;;;;;10.32;9.23;;;;;;;25.83;60.44;95860.55;1770976;81;20979;-59
2021/07/10 07:26:31;;;;;;;11.33;9.43;;;;;;;25.84;59.50;95854.16;1770911;81;20966;-59
2021/07/10 07:28:57;;;;;;;11.53;10.30;;;;;;;25.89;60.24;95856.05;1771001;81;20962;-59
2021/07/10 07:31:24;;;;;;;11.22;9.53;;;;;;;26.02;60.35;95857.83;1770471;81;21527;-60
2021/07/10 07:33:50;;;;;;;10.03;9.10;;;;;;;26.15;61.56;95854.55;1770913;81;21005;-59
2021/07/10 07:36:17;;;;;;;11.08;10.08;;;;;;;26.29;61.53;95849.45;1770055;81;21062;-59
2021/07/10 07:38:43;;;;;;;12.45;10.35;;;;;;;26.41;61.84;95853.03;1770275;81;21555;-59
2021/07/10 07:41:10;;;;;;;14.45;9.98;;;;;;;26.43;60.86;95851.93;1770794;81;20999;-59
2021/07/10 07:43:37;;;;;;;14.85;11.05;;;;;;;26.41;60.39;95853.03;1770434;81;21034;-59
2021/07/10 07:46:03;;;;;;;11.00;9.98;;;;;;;26.49;60.00;95851.97;1770256;81;21121;-59
2021/07/10 07:48:30;;;;;;;10.85;9.95;;;;;;;26.59;60.13;95845.38;1770673;81;21017;-59
2021/07/10 07:50:57;;;;;;;11.38;10.38;;;;;;;26.70;60.34;95848.09;1770281;81;21141;-59
2021/07/10 07:53:23;;;;;;;11.25;10.08;;;;;;;26.81;60.75;95846.73;1770453;81;21085;-59
2021/07/10 07:55:50;;;;;;;11.22;10.10;;;;;;;26.94;60.02;95848.01;1770515;81;21022;-59
2021/07/10 07:58:17;;;;;;;13.35;9.98;;;;;;;27.07;59.91;95847.38;1770897;81;21004;-59
2021/07/10 08:00:44;;;;;;;10.85;9.63;;;;;;;27.18;59.21;95843.34;1763367;81;21615;-59
2021/07/10 08:03:10;;;;;;;12.63;10.30;;;;;;;27.23;56.06;95845.67;1770846;81;20994;-59
2021/07/10 08:05:37;;;;;;;13.70;11.03;;;;;;;27.16;57.19;95838.50;1770299;81;21082;-59
2021/07/10 08:08:05;;;;;;;12.03;10.93;;;;;;;27.30;57.59;95841.48;1770672;81;21030;-59
2021/07/10 08:10:32;;;;;;;12.05;10.95;;;;;;;27.44;59.03;95830.86;1770877;81;21002;-59
2021/07/10 08:12:59;;;;;;;15.18;10.88;;;;;;;27.52;55.41;95831.61;1770621;81;21472;-59
2021/07/10 08:15:25;;;;;;;12.28;11.08;;;;;;;27.73;55.89;95833.88;1770581;81;21117;-59
2021/07/10 08:17:53;;;;;;;11.12;9.65;;;;;;;27.92;53.51;95837.79;1770634;81;20991;-59
2021/07/10 08:20:21;;;;;;;11.93;10.82;;;;;;;28.15;54.41;95836.73;1770320;81;21086;-60
2021/07/10 08:22:48;;;;;;;15.13;10.75;;;;;;;28.41;54.14;95836.34;1770399;81;21086;-59
2021/07/10 08:25:16;;;;;;;10.72;9.63;;;;;;;28.59;55.03;95835.28;1770418;81;21022;-59
2021/07/10 08:27:44;;;;;;;10.63;9.40;;;;;;;28.76;54.05;95835.18;1770531;81;21598;-59
2021/07/10 08:30:15;;;;;;;12.45;9.60;;;;;;;28.92;52.53;95834.18;1770851;81;21066;-59
2021/07/10 08:32:44;;;;;;;10.43;9.40;;;;;;;28.98;48.23;95835.48;1763847;81;21010;-59
2021/07/10 08:35:12;;;;;;;10.38;9.33;;;;;;;29.02;51.06;95832.87;1770293;81;21065;-59
2021/07/10 08:37:39;;;;;;;9.98;9.08;;;;;;;29.26;51.16;95833.95;1763544;81;21082;-59
2021/07/10 08:40:09;;;;;;;10.58;7.95;;;;;;;29.45;49.67;95827.19;1770345;81;21014;-59
2021/07/10 08:42:36;;;;;;;11.57;9.05;;;;;;;29.58;48.31;95820.64;1770532;81;21006;-59
2021/07/10 08:45:07;;;;;;;10.63;8.35;;;;;;;29.71;48.61;95813.11;1770528;81;21014;-59
2021/07/10 08:47:37;;;;;;;11.40;9.00;;;;;;;29.85;46.66;95816.79;1770848;81;21452;-60
2021/07/10 08:50:18;;;;;;;12.15;8.65;;;;;;;29.91;46.55;95820.32;1770300;81;21042;-59
2021/07/10 08:52:45;;;;;;;9.78;8.78;;;;;;;30.07;46.42;95817.53;1770697;81;21484;-59
2021/07/10 08:55:15;;;;;;;10.72;9.65;;;;;;;30.16;46.38;95817.53;1770917;81;21017;-59
2021/07/10 08:57:43;;;;;;;11.05;8.43;;;;;;;30.38;47.77;95816.39;1770473;81;21556;-59
2021/07/10 09:00:20;;;;;;;9.23;8.20;;;;;;;30.57;46.40;95816.87;1770309;81;21053;-59
2021/07/10 09:02:52;;;;;;;8.45;7.60;;;;;;;30.66;44.24;95808.83;1770347;81;21030;-59
2021/07/10 09:05:20;;;;;;;8.90;8.00;;;;;;;30.81;44.93;95811.44;1770779;81;21026;-59
2021/07/10 09:08:27;;;;;;;9.80;8.25;;;;;;;30.81;43.49;95810.08;1770197;81;21034;-59
2021/07/10 09:11:08;;;;;;;8.03;7.15;;;;;;;30.87;43.88;95811.38;1770617;81;21034;-60
2021/07/10 09:13:45;;;;;;;8.35;7.55;;;;;;;30.74;41.31;95803.49;1770663;81;21014;-59
2021/07/10 09:16:16;;;;;;;12.63;7.53;;;;;;;30.79;38.96;95804.80;1763736;81;21018;-59
2021/07/10 09:19:05;;;;;;;8.30;7.50;;;;;;;30.75;42.19;95804.72;1770457;81;21021;-59
2021/07/10 09:21:50;;;;;;;8.60;7.80;;;;;;;30.80;41.63;95809.73;1770248;81;20998;-59
2021/07/10 09:24:36;;;;;;;7.42;6.17;;;;;;;30.78;40.88;95816.67;1770629;81;21021;-59
2021/07/10 09:27:07;;;;;;;6.42;5.83;;;;;;;30.31;40.57;95821.19;1770643;81;21073;-59
2021/07/10 09:29:43;;;;;;;7.90;5.75;;;;;;;28.70;43.55;95824.33;1770624;81;21080;-59
2021/07/10 09:32:14;;;;;;;8.98;6.15;;;;;;;27.89;46.54;95829.92;1770583;81;21102;-59
2021/07/10 09:34:51;;;;;;;7.40;6.25;;;;;;;27.11;48.95;95837.16;1769058;81;21548;-60
2021/07/10 09:37:25;;;;;;;9.73;7.85;;;;;;;26.65;51.02;95839.48;1770633;81;20994;-59
2021/07/10 09:40:03;;;;;;;10.58;7.05;;;;;;;26.16;54.25;95837.37;1770182;81;21094;-59
2021/07/10 09:42:39;;;;;;;13.00;8.28;;;;;;;25.50;57.03;95845.48;1770809;81;21065;-59
2021/07/10 09:45:12;;;;;;;8.50;7.62;;;;;;;24.97;59.70;95837.13;1770504;81;21014;-59
2021/07/10 09:47:38;;;;;;;9.85;7.97;;;;;;;24.61;60.94;95844.64;1768119;81;21041;-59
2021/07/10 09:50:08;;;;;;;9.65;8.13;;;;;;;24.35;60.95;95857.22;1770331;81;21512;-59
2021/07/10 09:52:38;;;;;;;26.40;11.08;;;;;;;24.17;61.72;95881.78;1770449;81;20978;-59
2021/07/10 09:55:13;;;;;;;31.87;12.63;;;;;;;23.83;67.71;95906.08;1770740;81;21519;-59
2021/07/10 09:57:42;;;;;;;22.65;9.53;;;;;;;23.58;68.59;95909.48;1770787;81;21005;-59
2021/07/10 10:00:18;;;;;;;18.42;9.38;;;;;;;23.25;70.07;95907.15;1770518;81;21136;-59
2021/07/10 10:02:55;;;;;;;12.05;9.00;;;;;;;22.94;70.42;95892.06;1770664;81;20990;-59
2021/07/10 10:05:32;;;;;;;14.33;9.05;;;;;;;22.72;69.25;95880.42;1770623;81;21053;-59
2021/07/10 10:08:04;;;;;;;11.85;7.85;;;;;;;22.40;71.64;95881.45;1766887;81;21082;-59
2021/07/10 10:10:39;;;;;;;15.93;8.27;;;;;;;22.15;72.26;95885.17;1764084;81;21540;-59
2021/07/10 10:13:11;;;;;;;12.70;7.90;;;;;;;22.01;73.24;95901.65;1763958;81;21401;-59
2021/07/10 10:15:47;;;;;;;13.55;7.50;;;;;;;21.88;74.48;95897.11;1764067;81;21453;-59
2021/07/10 10:18:21;;;;;;;8.55;6.95;;;;;;;21.75;75.43;95895.61;1764088;81;21018;-59
2021/07/10 10:20:50;;;;;;;13.48;9.05;;;;;;;21.74;74.74;95886.66;1763466;81;20995;-59
2021/07/10 10:23:18;;;;;;;12.55;8.80;;;;;;;21.69;75.50;95882.52;1763746;81;21002;-59
2021/07/10 10:25:48;;;;;;;12.63;7.35;;;;;;;21.66;76.60;95871.97;1763680;81;21038;-59
2021/07/10 10:28:20;;;;;;;17.77;8.78;;;;;;;21.57;76.60;95866.19;1763282;81;21018;-59
2021/07/10 10:30:52;;;;;;;14.15;8.13;;;;;;;21.55;76.64;95851.97;1764078;81;21508;-59
2021/07/10 10:33:19;;;;;;;14.40;8.05;;;;;;;21.59;76.42;95864.25;1763963;81;21002;-59
2021/07/10 10:35:53;;;;;;;13.38;8.90;;;;;;;21.61;77.39;95869.54;1763509;81;21022;-59
2021/07/10 10:38:21;;;;;;;16.93;8.78;;;;;;;21.52;77.36;95884.83;1763753;81;20970;-59
2021/07/10 10:40:51;;;;;;;11.43;7.97;;;;;;;21.47;77.57;95914.65;1763723;81;21040;-59
2021/07/10 10:43:20;;;;;;;14.18;8.00;;;;;;;21.49;77.34;95927.97;1763818;81;21069;-59
2021/07/10 10:45:47;;;;;;;8.15;7.22;;;;;;;21.49;77.00;95948.09;1763821;81;21022;-59
2021/07/10 10:48:38;;;;;;;9.70;8.48;;;;;;;21.44;78.94;95952.86;1763910;81;21053;-59
2021/07/10 10:51:28;;;;;;;10.93;7.67;;;;;;;21.31;77.64;95944.59;1758063;81;20991;-59
2021/07/10 10:54:22;;;;;;;8.30;7.50;;;;;;;21.24;77.52;95941.38;1763856;81;20958;-59
2021/07/10 10:56:49;;;;;;;21.02;8.95;;;;;;;21.23;77.24;95930.74;1763497;81;21113;-59
2021/07/10 10:59:40;;;;;;;11.08;8.83;;;;;;;21.19;77.90;95935.39;1763483;81;21026;-59
2021/07/10 11:02:27;;;;;;;12.07;7.40;;;;;;;21.15;78.77;95942.77;1763902;81;20986;-59
2021/07/10 11:04:58;;;;;;;9.98;7.60;;;;;;;21.13;78.63;95950.02;1752437;81;21038;-59
2021/07/10 11:07:35;;;;;;;7.08;6.37;;;;;;;21.09;77.75;95946.23;1763812;81;21065;-59
2021/07/10 11:10:17;;;;;;;8.35;7.40;;;;;;;21.01;78.01;95940.44;1763845;81;21006;-59
2021/07/10 11:12:54;;;;;;;9.65;7.80;;;;;;;21.03;78.24;95923.79;1761151;81;21061;-59
2021/07/10 11:15:40;;;;;;;8.38;7.58;;;;;;;21.04;77.87;95924.16;1763685;81;21038;-59
2021/07/10 11:18:08;;;;;;;12.73;9.45;;;;;;;21.06;78.53;95929.84;1763600;81;21035;-59
2021/07/10 11:20:49;;;;;;;11.85;8.35;;;;;;;21.10;78.63;95936.78;1763755;81;21050;-59
2021/07/10 11:23:30;;;;;;;11.25;8.13;;;;;;;21.09;78.56;95945.80;1763964;81;21026;-59
2021/07/10 11:26:06;;;;;;;12.58;8.40;;;;;;;21.12;78.35;95940.73;1763999;81;21133;-59
2021/07/10 11:28:49;;;;;;;12.75;8.93;;;;;;;21.03;79.21;95946.59;1763823;81;21103;-59
2021/07/10 11:31:21;;;;;;;10.70;8.50;;;;;;;20.99;78.98;95949.03;1763705;81;21042;-59
2021/07/10 11:34:04;;;;;;;17.27;9.38;;;;;;;21.02;78.78;95949.75;1764058;81;21010;-59
2021/07/10 11:36:48;;;;;;;12.05;8.55;;;;;;;21.02;79.02;95952.44;1763760;81;21065;-60